Time;durP1;ratioP1;P1;durP2;ratioP2;P2;SDS_P1;SDS_P2;PMS_P1;PMS_P2;Temp;Humidity;BMP_temperature;BMP_pressure;BME280_temperature;BME280_humidity;BME280_pressure;Samples;Min_cycle;Max_cycle;Signal;HPM_P1;HPM_P2
2022/02/07 00:02:36;;;;;;;22.73;3.00;;;;;;;4.82;100.00;100780.22;5072002;28;20057;-33
2022/02/07 00:05:04;;;;;;;20.23;3.53;;;;;;;4.84;100.00;100780.81;5060468;28;20476;-33
2022/02/07 00:07:32;;;;;;;29.05;3.78;;;;;;;4.90;100.00;100778.09;5071373;28;20436;-35
2022/02/07 00:10:00;;;;;;;19.35;3.33;;;;;;;4.94;100.00;100793.91;5071662;28;20350;-35
2022/02/07 00:12:29;;;;;;;25.00;4.20;;;;;;;4.99;100.00;100805.00;5071188;28;20149;-36
2022/02/07 00:14:57;;;;;;;25.95;3.17;;;;;;;5.04;100.00;100802.25;5072004;28;20050;-36
2022/02/07 00:17:24;;;;;;;21.08;3.20;;;;;;;5.09;100.00;100820.84;5072187;28;20063;-38
2022/02/07 00:19:57;;;;;;;30.45;3.95;;;;;;;5.12;100.00;100817.53;5070778;28;20052;-33
2022/02/07 00:22:25;;;;;;;20.13;2.85;;;;;;;5.15;100.00;100844.69;5072271;28;20431;-41
2022/02/07 00:24:53;;;;;;;21.52;3.83;;;;;;;5.13;100.00;100836.66;5070705;28;20502;-34
2022/02/07 00:27:24;;;;;;;23.55;3.28;;;;;;;5.14;100.00;100841.09;5072319;28;20041;-40
2022/02/07 00:29:53;;;;;;;22.08;2.90;;;;;;;5.15;100.00;100845.53;5071802;28;20127;-42
2022/02/07 00:32:26;;;;;;;20.17;3.47;;;;;;;5.19;100.00;100859.66;5071188;28;20135;-38
2022/02/07 00:34:54;;;;;;;20.23;3.55;;;;;;;5.21;100.00;100860.19;5070380;28;20048;-34
2022/02/07 00:37:23;;;;;;;24.17;3.78;;;;;;;5.22;100.00;100877.63;5070751;28;20490;-32
2022/02/07 00:40:01;;;;;;;17.52;3.28;;;;;;;5.20;100.00;100880.66;5069782;28;20053;-38
2022/02/07 00:42:32;;;;;;;28.77;4.03;;;;;;;5.13;100.00;100897.50;5070158;28;20068;-34
2022/02/07 00:45:14;;;;;;;19.67;3.28;;;;;;;5.08;100.00;100897.44;5070171;28;20398;-35
2022/02/07 00:47:42;;;;;;;30.05;3.65;;;;;;;5.06;100.00;100899.63;5068414;28;20135;-41
2022/02/07 00:50:09;;;;;;;20.75;3.78;;;;;;;5.06;100.00;100910.69;5070189;28;20044;-35
2022/02/07 00:52:37;;;;;;;26.55;3.50;;;;;;;5.06;100.00;100916.22;5069761;28;20048;-42
2022/02/07 00:55:05;;;;;;;22.27;3.03;;;;;;;5.00;100.00;100933.84;5070810;28;20045;-36
2022/02/07 00:57:33;;;;;;;19.52;2.95;;;;;;;4.94;100.00;100934.91;5070308;28;20057;-40
2022/02/07 01:00:03;;;;;;;24.25;3.25;;;;;;;4.84;100.00;100929.25;5060066;28;20098;-33
2022/02/07 01:02:39;;;;;;;21.38;3.72;;;;;;;4.73;100.00;100927.50;5069833;28;20094;-37
2022/02/07 01:05:08;;;;;;;33.08;4.72;;;;;;;4.67;100.00;100934.03;5069305;28;20048;-36
2022/02/07 01:07:37;;;;;;;22.58;3.28;;;;;;;4.63;100.00;100935.66;5070628;28;20519;-38
2022/02/07 01:10:07;;;;;;;28.02;4.72;;;;;;;4.64;100.00;100951.13;5071242;28;20497;-35
2022/02/07 01:12:55;;;;;;;31.15;4.78;;;;;;;4.70;100.00;100972.22;5069982;28;20052;-31
2022/02/07 01:15:52;;;;;;;27.83;3.70;;;;;;;4.77;100.00;100990.28;5069114;28;20044;-34
2022/02/07 01:18:51;;;;;;;26.77;3.78;;;;;;;4.84;100.00;100985.38;5068905;28;20516;-37
2022/02/07 01:47:12;;;;;;;21.80;3.10;;;;;;;5.14;100.00;101112.16;5061224;28;20048;-38
2022/02/07 01:50:07;;;;;;;19.63;3.15;;;;;;;5.16;100.00;101123.81;5068707;28;20098;-39
2022/02/07 01:52:52;;;;;;;30.08;3.75;;;;;;;5.20;100.00;101126.88;5069192;28;20045;-37
2022/02/07 01:55:32;;;;;;;26.73;3.25;;;;;;;5.22;100.00;101140.44;5068502;28;20059;-40
2022/02/07 01:58:04;;;;;;;21.25;3.17;;;;;;;5.23;100.00;101154.03;5069918;28;20044;-34
2022/02/07 02:00:35;;;;;;;;;;;;;;;5.23;100.00;101158.72;5069813;28;20088;-35
2022/02/07 02:03:04;;;;;;;21.35;2.70;;;;;;;5.21;100.00;101156.19;5068759;28;19928;-33
2022/02/07 02:05:39;;;;;;;20.85;3.38;;;;;;;5.24;100.00;101149.31;5069530;28;20127;-37
2022/02/07 02:08:16;;;;;;;24.40;3.45;;;;;;;5.26;100.00;101178.41;5069400;28;20135;-33
2022/02/07 02:10:51;;;;;;;22.55;4.25;;;;;;;5.28;100.00;101178.16;5068694;28;20564;-40
2022/02/07 02:13:26;;;;;;;18.38;2.90;;;;;;;5.30;100.00;101198.09;5068944;28;20055;-40
2022/02/07 02:16:00;;;;;;;19.23;3.57;;;;;;;5.31;100.00;101188.72;5069464;28;20040;-34
2022/02/07 02:33:24;;;;;;;23.27;3.85;;;;;;;5.43;100.00;101234.53;5086646;28;20040;-41
2022/02/07 02:36:15;;;;;;;25.80;3.13;;;;;;;5.47;100.00;101249.53;5086901;28;20052;-39
2022/02/07 02:39:05;;;;;;;25.88;3.53;;;;;;;5.51;100.00;101258.19;5081008;28;20058;-36
2022/02/07 02:47:24;;;;;;;23.08;3.45;;;;;;;5.47;100.00;101263.38;5086246;28;20105;-30
2022/02/07 02:50:15;;;;;;;22.17;3.22;;;;;;;5.46;100.00;101272.78;5086713;28;20561;-33
2022/02/07 02:52:46;;;;;;;19.33;3.10;;;;;;;5.43;100.00;101278.81;5085931;28;20139;-35
2022/02/07 02:55:14;;;;;;;27.42;3.55;;;;;;;5.42;100.00;101287.38;5086533;28;20044;-37
2022/02/07 02:57:43;;;;;;;25.60;4.20;;;;;;;5.44;100.00;101305.41;5088033;28;20048;-39
2022/02/07 03:00:12;;;;;;;29.48;4.75;;;;;;;5.47;100.00;101313.19;5084371;28;20498;-35
2022/02/07 03:02:41;;;;;;;20.85;3.67;;;;;;;5.45;100.00;101311.78;5088004;28;20048;-36
2022/02/07 03:05:09;;;;;;;22.02;3.47;;;;;;;5.45;100.00;101323.69;5085925;28;20044;-41
2022/02/07 03:07:37;;;;;;;29.77;3.90;;;;;;;5.46;100.00;101336.44;5085751;28;20401;-45
2022/02/07 03:10:06;;;;;;;26.50;3.90;;;;;;;5.46;100.00;101346.66;5087526;28;20052;-32
2022/02/07 03:12:43;;;;;;;30.25;4.65;;;;;;;5.43;100.00;101347.16;5086913;28;20091;-34
2022/02/07 03:17:57;;;;;;;21.45;3.30;;;;;;;5.38;100.00;101369.25;5084875;28;20050;-38
2022/02/07 03:20:25;;;;;;;21.20;3.55;;;;;;;5.37;100.00;101385.00;5085491;28;20072;-37
2022/02/07 03:22:53;;;;;;;25.70;3.70;;;;;;;5.39;100.00;101398.59;5085996;28;20127;-35
2022/02/07 03:25:20;;;;;;;28.88;3.83;;;;;;;5.39;100.00;101395.84;5085649;28;20052;-38
2022/02/07 03:27:52;;;;;;;22.90;3.63;;;;;;;5.40;100.00;101397.47;5084700;28;20080;-38
2022/02/07 03:30:34;;;;;;;24.17;3.63;;;;;;;5.41;100.00;101410.22;5085033;28;20051;-41
2022/02/07 03:33:02;;;;;;;19.60;3.25;;;;;;;5.42;100.00;101412.75;5072128;28;20071;-40
2022/02/07 03:35:30;;;;;;;21.45;3.45;;;;;;;5.45;100.00;101419.72;5071543;28;20053;-38
2022/02/07 03:37:58;;;;;;;33.95;4.90;;;;;;;5.49;100.00;101435.56;5073523;28;20041;-41
2022/02/07 03:40:28;;;;;;;35.97;4.38;;;;;;;5.51;100.00;101438.94;5071454;28;20516;-30
2022/02/07 03:42:56;;;;;;;31.63;4.32;;;;;;;5.53;100.00;101447.81;5072126;28;20508;-32
2022/02/07 03:45:24;;;;;;;27.48;4.43;;;;;;;5.55;100.00;101458.66;5071559;28;20386;-33
2022/02/07 03:47:59;;;;;;;28.65;3.67;;;;;;;5.57;100.00;101473.09;5072219;28;20044;-38
2022/02/07 03:50:33;;;;;;;24.88;3.33;;;;;;;5.58;100.00;101471.16;5071078;28;20047;-40
2022/02/07 03:53:01;;;;;;;31.88;5.15;;;;;;;5.63;100.00;101485.06;5072797;28;20411;-39
2022/02/07 03:55:32;;;;;;;26.90;4.60;;;;;;;5.65;100.00;101488.41;5072134;28;20064;-36
2022/02/07 03:58:04;;;;;;;23.25;3.60;;;;;;;5.64;100.00;101490.34;5071046;28;20382;-37
2022/02/07 04:00:33;;;;;;;22.73;3.50;;;;;;;5.67;100.00;101495.38;5072797;28;20477;-37
2022/02/07 04:03:28;;;;;;;22.65;3.45;;;;;;;5.67;100.00;101503.69;5071796;28;20059;-37
2022/02/07 04:05:58;;;;;;;24.27;4.07;;;;;;;5.70;100.00;101517.03;5072590;28;20053;-41
2022/02/07 04:08:31;;;;;;;26.02;3.78;;;;;;;5.70;100.00;101530.03;5071623;28;20064;-38
2022/02/07 04:11:09;;;;;;;22.73;3.75;;;;;;;5.70;100.00;101530.03;5070841;28;20086;-33
2022/02/07 04:13:48;;;;;;;17.52;2.78;;;;;;;5.70;100.00;101549.44;5071107;28;20490;-40
2022/02/07 04:16:17;;;;;;;25.98;4.13;;;;;;;5.66;100.00;101539.94;5072606;28;20083;-36
2022/02/07 04:19:16;;;;;;;21.65;3.72;;;;;;;5.63;100.00;101546.81;5071232;28;20136;-36
2022/02/07 04:21:45;;;;;;;29.33;3.70;;;;;;;5.63;100.00;101563.41;5062011;28;20746;-35
2022/02/07 04:24:20;;;;;;;21.88;3.47;;;;;;;5.63;100.00;101563.41;5070609;28;20433;-37
2022/02/07 04:27:07;;;;;;;25.42;3.75;;;;;;;5.62;100.00;101566.44;5071155;28;20090;-33
2022/02/07 04:29:37;;;;;;;26.88;4.03;;;;;;;5.61;100.00;101586.91;5070933;28;20095;-38
2022/02/07 04:32:07;;;;;;;25.38;3.65;;;;;;;5.62;100.00;101599.66;5063015;28;20056;-33
2022/02/07 04:34:38;;;;;;;27.35;3.50;;;;;;;5.61;100.00;101598.81;5071068;28;20052;-39
2022/02/07 04:37:07;;;;;;;29.70;4.03;;;;;;;5.60;100.00;101619.28;5070905;28;20040;-40
2022/02/07 04:39:35;;;;;;;28.20;4.43;;;;;;;5.59;100.00;101617.63;5071654;28;20037;-31
2022/02/07 04:42:12;;;;;;;28.20;4.03;;;;;;;5.58;100.00;101640.03;5070886;28;20571;-42
2022/02/07 04:44:49;;;;;;;27.13;3.83;;;;;;;5.57;100.00;101641.94;5071308;28;20072;-35
2022/02/07 04:47:35;;;;;;;27.25;3.83;;;;;;;5.58;100.00;101643.63;5070550;28;20102;-38
2022/02/07 04:50:23;;;;;;;33.50;4.53;;;;;;;5.61;100.00;101656.13;5072430;28;20071;-37
2022/02/07 04:53:11;;;;;;;29.00;4.32;;;;;;;5.60;100.00;101657.19;5061849;28;20048;-38
2022/02/07 04:55:45;;;;;;;35.47;4.82;;;;;;;5.63;100.00;101657.56;5070705;28;20051;-32
2022/02/07 04:58:29;;;;;;;37.40;5.13;;;;;;;5.67;100.00;101675.34;5070962;28;20119;-37
2022/02/07 05:01:09;;;;;;;26.15;4.03;;;;;;;5.71;100.00;101690.41;5070043;28;20059;-36
2022/02/07 05:03:43;;;;;;;22.67;3.83;;;;;;;5.73;100.00;101691.00;5070667;28;20102;-37
2022/02/07 05:14:37;;;;;;;24.85;3.90;;;;;;;5.66;100.00;101717.97;5070561;28;20040;-41
2022/02/07 05:38:25;;;;;;;22.88;3.97;;;;;;;6.00;100.00;101773.50;5147615;27;20396;-33
2022/02/07 05:41:11;;;;;;;28.15;3.75;;;;;;;5.84;100.00;101775.94;5121791;28;20103;-32
2022/02/07 05:43:51;;;;;;;26.40;4.00;;;;;;;5.79;100.00;101784.19;5113058;28;20405;-33
2022/02/07 05:46:27;;;;;;;26.40;3.75;;;;;;;5.78;100.00;101782.50;5119694;28;20160;-32
2022/02/07 05:49:07;;;;;;;25.52;3.78;;;;;;;5.77;100.00;101778.03;5112403;28;20124;-32
2022/02/07 05:52:07;;;;;;;18.27;3.20;;;;;;;5.70;100.00;101785.63;5102560;28;20137;-33
2022/02/07 05:54:45;;;;;;;26.40;3.47;;;;;;;5.63;100.00;101789.59;5120268;28;20140;-31
2022/02/07 05:57:40;;;;;;;21.75;3.33;;;;;;;5.53;100.00;101802.16;5111369;28;20047;-31
2022/02/07 06:00:16;;;;;;;18.05;3.17;;;;;;;5.50;100.00;101810.94;5114652;28;20051;-33
2022/02/07 06:02:44;;;;;;;17.58;2.67;;;;;;;5.49;100.00;101825.03;5113558;27;20070;-32
2022/02/07 06:05:35;;;;;;;14.38;2.70;;;;;;;5.46;100.00;101837.41;5111043;28;20055;-31
2022/02/07 06:08:09;;;;;;;23.10;3.75;;;;;;;5.46;100.00;101836.56;5112037;28;20051;-31
2022/02/07 06:10:38;;;;;;;19.80;2.78;;;;;;;5.45;100.00;101832.13;5116785;27;20405;-33
2022/02/07 06:13:12;;;;;;;20.02;2.92;;;;;;;5.43;100.00;101846.19;5110251;28;20490;-31
2022/02/07 06:15:40;;;;;;;21.35;3.30;;;;;;;5.40;100.00;101843.91;5117701;27;20413;-31
2022/02/07 06:18:08;;;;;;;16.95;2.65;;;;;;;5.39;100.00;101853.31;5107782;28;20047;-31
2022/02/07 06:20:37;;;;;;;23.98;3.28;;;;;;;5.38;100.00;101859.94;5119233;28;20051;-34
2022/02/07 06:23:05;;;;;;;22.70;3.13;;;;;;;5.38;100.00;101871.00;5092502;28;20051;-31
2022/02/07 06:25:33;;;;;;;22.88;3.25;;;;;;;5.37;100.00;101879.56;5118179;28;20562;-31
2022/02/07 06:28:04;;;;;;;17.77;3.05;;;;;;;5.37;100.00;101882.31;5109335;28;20077;-32
2022/02/07 06:30:47;;;;;;;26.90;4.75;;;;;;;5.36;100.00;101886.16;5118427;28;20135;-31
2022/02/07 06:33:15;;;;;;;32.33;4.50;;;;;;;5.37;100.00;101896.16;5113610;28;20050;-33
2022/02/07 06:35:43;;;;;;;25.15;3.13;;;;;;;5.36;100.00;101900.84;5112662;27;20047;-32
2022/02/07 06:38:11;;;;;;;26.15;4.13;;;;;;;5.37;100.00;101912.75;5134036;27;20055;-32
2022/02/07 06:40:42;;;;;;;24.67;3.33;;;;;;;5.34;100.00;101908.53;5119155;27;20048;-32
2022/02/07 06:43:11;;;;;;;24.83;3.65;;;;;;;5.36;100.00;101916.63;5116781;27;20043;-32
2022/02/07 06:45:40;;;;;;;21.45;3.15;;;;;;;5.34;100.00;101922.38;5120522;27;20084;-33
2022/02/07 06:48:09;;;;;;;23.45;3.40;;;;;;;5.35;100.00;101934.31;5126053;27;20511;-32
2022/02/07 06:50:39;;;;;;;31.40;4.53;;;;;;;5.35;100.00;101935.13;5122139;27;20052;-31
2022/02/07 06:53:08;;;;;;;28.23;3.85;;;;;;;5.40;100.00;101953.78;5123754;27;20096;-32
2022/02/07 06:55:42;;;;;;;20.90;2.83;;;;;;;5.44;100.00;101955.84;5122156;27;20055;-32
2022/02/07 06:58:16;;;;;;;29.17;3.88;;;;;;;5.48;100.00;101958.97;5126167;27;20050;-31
2022/02/07 07:00:45;;;;;;;24.15;3.47;;;;;;;5.51;100.00;101961.28;5119295;27;20042;-31
2022/02/07 07:03:17;;;;;;;31.83;4.05;;;;;;;5.54;100.00;101969.09;5116681;27;20171;-31
2022/02/07 07:05:47;;;;;;;24.07;2.80;;;;;;;5.55;100.00;101981.88;5119154;27;20047;-31
2022/02/07 07:08:15;;;;;;;25.90;3.50;;;;;;;5.58;100.00;101991.63;5116432;27;20388;-30
2022/02/07 07:10:44;;;;;;;30.00;3.67;;;;;;;5.59;100.00;101999.69;5121363;27;20071;-31
2022/02/07 07:13:15;;;;;;;23.02;3.72;;;;;;;5.63;100.00;102016.66;5121620;27;20047;-31
2022/02/07 07:15:51;;;;;;;27.08;3.70;;;;;;;5.64;100.00;102027.50;5118279;27;20137;-31
2022/02/07 07:18:20;;;;;;;26.95;4.13;;;;;;;5.65;100.00;102025.56;5116125;27;20074;-32
2022/02/07 07:20:50;;;;;;;24.52;3.78;;;;;;;5.66;100.00;102030.03;5118408;27;20051;-31
2022/02/07 07:23:18;;;;;;;27.55;2.92;;;;;;;5.63;100.00;102028.56;5119099;27;20048;-32
2022/02/07 07:25:49;;;;;;;27.40;4.18;;;;;;;5.61;100.00;102044.56;5123328;27;20050;-31
2022/02/07 07:28:20;;;;;;;23.00;3.10;;;;;;;5.58;100.00;102047.00;5120040;27;20073;-31
2022/02/07 07:30:54;;;;;;;24.35;3.38;;;;;;;5.54;100.00;102055.78;5118482;27;20052;-32
2022/02/07 07:33:29;;;;;;;22.80;3.38;;;;;;;5.53;100.00;102056.00;5121366;27;20055;-31
2022/02/07 07:36:00;;;;;;;24.13;3.35;;;;;;;5.53;100.00;102069.84;5122293;27;20057;-32
2022/02/07 07:38:30;;;;;;;21.80;3.15;;;;;;;5.55;100.00;102087.06;5119417;27;20050;-33
2022/02/07 07:40:59;;;;;;;27.25;3.90;;;;;;;5.56;100.00;102104.53;5119029;27;20429;-31
2022/02/07 07:43:48;;;;;;;22.75;3.47;;;;;;;5.57;100.00;102109.84;5121690;27;20503;-32
2022/02/07 07:46:30;;;;;;;24.45;4.05;;;;;;;5.61;100.00;102112.94;5123983;27;20070;-36
2022/02/07 07:49:10;;;;;;;22.65;3.30;;;;;;;5.65;100.00;102114.19;5121755;27;20093;-31
2022/02/07 07:51:52;;;;;;;27.20;3.90;;;;;;;5.70;100.00;102117.94;5125905;27;20138;-32
2022/02/07 07:54:55;;;;;;;27.40;3.75;;;;;;;5.74;100.00;102110.84;5087716;27;20393;-34
2022/02/07 08:03:07;;;;;;;22.02;3.38;;;;;;;5.86;100.00;102108.09;5121311;27;20079;-32
2022/02/07 08:05:44;;;;;;;21.15;3.40;;;;;;;5.91;100.00;102112.97;5116282;27;20047;-32
2022/02/07 08:08:24;;;;;;;23.58;3.65;;;;;;;5.96;100.00;102116.72;5119737;27;20048;-30
2022/02/07 08:11:01;;;;;;;22.25;3.50;;;;;;;6.02;100.00;102115.75;5124571;27;20398;-32
2022/02/07 08:13:33;;;;;;;19.52;2.67;;;;;;;6.09;100.00;102123.97;5121196;27;20077;-30
2022/02/07 08:16:10;;;;;;;23.92;3.22;;;;;;;6.17;100.00;102129.16;5113647;27;20109;-31
2022/02/07 08:18:39;;;;;;;24.38;3.47;;;;;;;6.26;100.00;102138.81;5118717;27;20047;-32
2022/02/07 08:21:07;;;;;;;20.63;3.40;;;;;;;6.36;100.00;102147.38;5126520;27;20420;-31
2022/02/07 08:23:36;;;;;;;25.55;4.10;;;;;;;6.48;100.00;102158.47;5120227;27;20504;-31
2022/02/07 08:26:04;;;;;;;22.13;3.70;;;;;;;6.63;100.00;102166.31;5116051;27;20157;-33
2022/02/07 08:28:45;;;;;;;19.48;3.22;;;;;;;6.79;100.00;102163.66;5121096;27;20039;-34
2022/02/07 08:31:17;;;;;;;21.77;3.03;;;;;;;6.96;100.00;102176.81;5115127;27;20051;-32
2022/02/07 08:33:47;;;;;;;20.58;3.45;;;;;;;7.12;100.00;102188.00;5121797;27;20497;-32
2022/02/07 08:36:16;;;;;;;32.45;4.05;;;;;;;7.28;100.00;102191.94;5124596;27;20494;-33
2022/02/07 08:38:47;;;;;;;24.05;3.30;;;;;;;7.40;100.00;102201.06;5116619;27;20093;-33
2022/02/07 08:41:16;;;;;;;24.98;4.00;;;;;;;7.52;100.00;102198.28;5124266;27;20070;-32
2022/02/07 08:43:44;;;;;;;24.90;3.80;;;;;;;7.67;100.00;102211.63;5122368;27;20104;-32
2022/02/07 08:46:12;;;;;;;28.98;3.65;;;;;;;7.83;100.00;102220.03;5122539;27;20122;-34
2022/02/07 08:48:41;;;;;;;24.73;3.92;;;;;;;8.03;100.00;102222.34;5121292;27;20493;-32
2022/02/07 08:51:10;;;;;;;17.90;3.13;;;;;;;8.23;100.00;102222.72;5120032;27;20047;-31
2022/02/07 08:53:42;;;;;;;17.38;3.35;;;;;;;8.50;100.00;102236.88;5118152;27;20047;-32
2022/02/07 08:56:11;;;;;;;24.05;3.42;;;;;;;8.81;100.00;102234.59;5121297;27;20079;-34
2022/02/07 08:58:43;;;;;;;14.38;3.28;;;;;;;9.09;100.00;102253.13;5122095;27;20408;-32
2022/02/07 09:01:20;;;;;;;19.30;3.38;;;;;;;9.36;100.00;102256.06;5118683;27;20500;-31
2022/02/07 09:06:40;;;;;;;15.50;3.03;;;;;;;9.96;100.00;102269.94;5120337;27;20050;-31
2022/02/07 09:09:15;;;;;;;13.23;2.53;;;;;;;10.17;100.00;102271.88;5122786;27;20047;-34
2022/02/07 09:11:43;;;;;;;16.77;2.70;;;;;;;10.38;100.00;102278.53;5119976;27;20043;-32
2022/02/07 09:14:19;;;;;;;14.98;2.50;;;;;;;10.50;99.42;102273.63;5124493;27;20070;-31
2022/02/07 09:16:47;;;;;;;16.40;2.78;;;;;;;10.68;99.56;102272.38;5119046;27;20043;-30
2022/02/07 09:19:19;;;;;;;24.17;3.47;;;;;;;10.87;98.02;102282.06;5115761;27;20071;-31
2022/02/07 09:21:49;;;;;;;17.70;3.22;;;;;;;11.06;97.41;102296.44;5118759;27;20075;-31
2022/02/07 09:24:17;;;;;;;20.67;3.50;;;;;;;11.29;95.08;102295.22;5122368;27;20450;-32
2022/02/07 09:26:45;;;;;;;18.38;3.00;;;;;;;11.44;93.41;102308.44;5125073;28;20146;-35
2022/02/07 09:29:12;;;;;;;11.48;2.55;;;;;;;11.65;92.90;102315.84;5120671;28;20071;-32
2022/02/07 09:31:40;;;;;;;17.20;3.10;;;;;;;11.84;90.36;102316.25;5117707;28;20031;-33
2022/02/07 09:34:08;;;;;;;13.38;2.35;;;;;;;11.94;89.20;102333.94;5123425;28;20039;-32
2022/02/07 09:36:36;;;;;;;13.43;2.78;;;;;;;12.07;87.22;102339.03;5124751;28;20082;-33
2022/02/07 09:39:06;;;;;;;14.23;2.42;;;;;;;12.22;84.81;102348.59;5116253;28;20039;-31
2022/02/07 09:41:34;;;;;;;18.05;2.63;;;;;;;12.36;84.71;102349.78;5118733;28;20617;-32
2022/02/07 09:44:03;;;;;;;16.50;2.80;;;;;;;12.50;82.73;102348.16;5126859;28;20431;-31
2022/02/07 09:46:43;;;;;;;12.25;2.55;;;;;;;12.57;80.52;102347.91;5121042;28;20070;-31
2022/02/07 09:49:12;;;;;;;12.18;2.40;;;;;;;12.63;79.43;102358.81;5114706;28;20050;-31
2022/02/07 09:51:42;;;;;;;15.70;2.75;;;;;;;12.79;79.34;102345.66;5120560;27;20110;-36
2022/02/07 09:54:15;;;;;;;16.50;2.50;;;;;;;12.94;77.90;102351.31;5125637;28;20138;-38
2022/02/07 09:56:45;;;;;;;11.52;2.65;;;;;;;13.02;76.26;102364.75;5119775;28;20511;-38
2022/02/07 09:59:14;;;;;;;13.10;2.45;;;;;;;13.13;76.12;102364.78;5114948;28;20050;-38
2022/02/07 10:01:45;;;;;;;12.88;2.25;;;;;;;13.23;75.40;102362.84;5121671;28;20054;-32
2022/02/07 10:04:22;;;;;;;13.73;2.30;;;;;;;13.42;74.96;102360.28;5125008;28;20050;-33
2022/02/07 10:07:03;;;;;;;17.02;3.03;;;;;;;13.68;73.67;102372.34;5120869;28;20131;-32
2022/02/07 10:09:46;;;;;;;12.32;2.30;;;;;;;13.74;72.22;102382.44;5115489;28;20089;-32
2022/02/07 10:18:09;;;;;;;9.00;2.30;;;;;;;13.75;71.16;102387.75;5087783;27;20380;-32
2022/02/07 10:38:03;;;;;;;10.70;2.13;;;;;;;13.49;71.32;102418.91;5073671;28;20058;-33
2022/02/07 10:40:36;;;;;;;11.18;2.58;;;;;;;13.53;69.45;102420.03;5087165;28;20113;-32
2022/02/07 10:43:44;;;;;;;9.73;2.15;;;;;;;13.40;69.51;102421.41;5079273;28;20547;-32
2022/02/07 10:46:16;;;;;;;12.32;2.45;;;;;;;13.25;69.11;102422.25;5076360;28;20493;-32
2022/02/07 10:48:48;;;;;;;9.35;1.90;;;;;;;13.16;69.33;102423.13;5087931;28;20060;-33
2022/02/07 10:51:19;;;;;;;8.43;2.15;;;;;;;13.20;69.85;102415.81;5086797;28;20040;-33
2022/02/07 10:53:48;;;;;;;18.63;2.67;;;;;;;13.21;70.96;102420.28;5087784;28;20139;-34
2022/02/07 10:56:20;;;;;;;14.52;2.72;;;;;;;13.01;70.43;102423.88;5087301;28;20049;-32
2022/02/07 10:58:53;;;;;;;11.63;1.90;;;;;;;12.49;70.12;102426.81;5086764;28;20082;-32
2022/02/07 11:01:31;;;;;;;13.57;2.28;;;;;;;12.02;72.16;102416.50;5084506;28;20310;-33
2022/02/07 11:04:04;;;;;;;12.30;2.10;;;;;;;11.65;74.12;102424.91;5087939;28;20075;-33
2022/02/07 11:06:35;;;;;;;16.42;2.72;;;;;;;11.46;76.23;102420.84;5082927;28;20488;-33
2022/02/07 11:09:12;;;;;;;14.27;2.78;;;;;;;11.32;77.37;102423.25;5087638;28;20453;-31
2022/02/07 11:12:10;;;;;;;14.05;2.40;;;;;;;11.09;77.57;102421.63;5083993;28;20170;-34
2022/02/07 11:15:03;;;;;;;10.18;1.92;;;;;;;10.79;79.14;102421.34;5080241;28;20158;-33
2022/02/07 11:17:58;;;;;;;;;;;;;;;10.75;79.51;102420.16;5078211;28;20048;-32
2022/02/07 11:20:38;;;;;;;14.50;2.20;;;;;;;10.88;81.99;102423.38;5086529;28;20007;-31
2022/02/07 11:23:20;;;;;;;15.18;2.40;;;;;;;11.07;82.81;102421.06;5086904;28;20050;-32
2022/02/07 11:25:54;;;;;;;15.48;2.55;;;;;;;11.32;82.54;102434.41;5086358;28;20131;-32
2022/02/07 11:28:25;;;;;;;12.02;2.10;;;;;;;11.56;82.00;102430.16;5078942;28;20048;-32
2022/02/07 11:30:55;;;;;;;13.55;2.90;;;;;;;11.69;80.70;102428.84;5072910;28;20170;-33
2022/02/07 11:33:34;;;;;;;12.93;2.00;;;;;;;11.75;80.23;102433.38;5072552;28;20056;-33
2022/02/07 11:36:04;;;;;;;13.95;2.97;;;;;;;11.72;80.42;102431.13;5073571;28;20176;-34
2022/02/07 11:38:33;;;;;;;14.20;2.45;;;;;;;11.77;80.41;102425.59;5073512;28;20467;-32
2022/02/07 11:41:03;;;;;;;13.68;2.22;;;;;;;11.82;80.80;102430.34;5072258;28;20576;-33
2022/02/07 11:43:32;;;;;;;10.68;2.15;;;;;;;11.85;79.91;102443.81;5073141;28;20063;-33
2022/02/07 11:46:03;;;;;;;13.02;1.92;;;;;;;11.88;79.21;102449.72;5073017;28;20060;-33
2022/02/07 11:48:35;;;;;;;11.82;2.03;;;;;;;11.88;79.49;102446.91;5071985;28;20440;-32
2022/02/07 11:51:11;;;;;;;13.98;1.92;;;;;;;11.82;79.21;102453.56;5072574;28;20451;-32
2022/02/07 11:53:46;;;;;;;15.07;2.30;;;;;;;11.77;79.67;102455.53;5063336;28;20036;-34
2022/02/07 11:56:21;;;;;;;11.73;1.73;;;;;;;11.68;80.25;102449.53;5070691;28;20087;-33
2022/02/07 11:59:15;;;;;;;14.60;2.25;;;;;;;11.57;80.70;102465.41;5063023;28;20071;-32
2022/02/07 12:01:54;;;;;;;12.98;2.10;;;;;;;11.41;81.41;102469.16;5072335;28;20070;-32
2022/02/07 12:04:29;;;;;;;14.73;2.45;;;;;;;11.33;82.06;102476.09;5073207;28;20163;-32
2022/02/07 12:07:18;;;;;;;11.70;2.38;;;;;;;11.29;81.93;102486.09;5072638;28;20124;-32
2022/02/07 12:10:28;;;;;;;13.98;2.30;;;;;;;11.19;80.96;102504.72;5072297;28;20106;-33
2022/02/07 12:13:01;;;;;;;15.20;2.00;;;;;;;11.12;81.75;102510.50;5025721;28;20139;-33
2022/02/07 12:15:35;;;;;;;11.52;2.17;;;;;;;11.05;81.53;102507.91;5029079;28;20478;-31
2022/02/07 12:18:20;;;;;;;10.80;1.80;;;;;;;11.03;82.67;102506.47;5054230;28;20045;-33
2022/02/07 12:20:50;;;;;;;11.82;1.80;;;;;;;11.05;82.00;102524.66;5069990;28;20040;-34
2022/02/07 12:23:19;;;;;;;13.52;1.90;;;;;;;11.00;81.44;102518.19;5069282;28;20041;-33
2022/02/07 12:26:03;;;;;;;11.63;1.83;;;;;;;11.00;81.98;102520.97;5072171;28;20597;-34
2022/02/07 12:28:41;;;;;;;16.48;2.65;;;;;;;10.95;82.16;102505.00;5072740;28;20037;-35
2022/02/07 12:31:17;;;;;;;12.98;1.80;;;;;;;10.86;82.36;102519.69;5071010;28;20048;-33
2022/02/07 12:33:47;;;;;;;12.75;2.00;;;;;;;10.79;83.05;102517.09;5071166;28;20083;-35
2022/02/07 12:36:16;;;;;;;10.80;1.90;;;;;;;10.66;82.98;102504.38;5071311;28;20052;-32
2022/02/07 12:38:45;;;;;;;13.23;2.40;;;;;;;10.64;84.12;102514.94;5072191;28;20036;-33
2022/02/07 12:41:16;;;;;;;14.23;1.70;;;;;;;10.63;83.96;102518.00;5071463;28;20135;-33
2022/02/07 12:43:45;;;;;;;7.82;1.55;;;;;;;10.56;85.01;102521.00;5071614;28;20059;-35
2022/02/07 12:46:17;;;;;;;11.88;2.03;;;;;;;10.54;85.66;102527.94;5072121;28;20044;-35
2022/02/07 12:48:51;;;;;;;9.23;1.50;;;;;;;10.44;85.55;102531.41;5071774;28;20072;-36
2022/02/07 12:51:20;;;;;;;10.82;1.50;;;;;;;10.32;86.51;102541.84;5071151;28;20094;-32
2022/02/07 12:53:52;;;;;;;13.25;1.90;;;;;;;10.22;86.62;102538.91;5063424;28;20493;-34
2022/02/07 12:56:22;;;;;;;11.98;1.85;;;;;;;10.18;87.05;102530.19;5072079;28;20143;-32
2022/02/07 12:58:51;;;;;;;9.57;1.60;;;;;;;10.15;86.82;102527.06;5070950;28;20512;-31
2022/02/07 13:01:23;;;;;;;11.45;1.77;;;;;;;10.11;86.84;102534.25;5071657;28;20048;-33
2022/02/07 13:03:56;;;;;;;12.07;2.10;;;;;;;9.97;87.22;102530.97;5070591;28;20139;-33
2022/02/07 13:06:30;;;;;;;11.93;1.98;;;;;;;9.87;87.69;102534.44;5071021;28;20571;-31
2022/02/07 13:09:21;;;;;;;14.52;1.73;;;;;;;9.62;87.81;102532.03;5062743;28;20044;-33
2022/02/07 13:12:01;;;;;;;11.95;1.45;;;;;;;9.46;88.49;102529.25;5070928;28;20048;-33
2022/02/07 13:14:31;;;;;;;12.15;1.65;;;;;;;9.45;89.97;102520.03;5062710;28;20079;-33
2022/02/07 13:16:59;;;;;;;11.95;1.48;;;;;;;9.45;89.98;102531.19;5071804;28;20056;-33
2022/02/07 13:19:28;;;;;;;9.43;1.70;;;;;;;9.46;90.50;102530.09;5070580;28;20051;-34
2022/02/07 13:21:56;;;;;;;7.75;1.63;;;;;;;9.48;90.56;102521.47;5071425;28;20131;-34
2022/02/07 13:24:27;;;;;;;11.00;1.67;;;;;;;9.54;91.49;102526.06;5071382;28;20049;-32
2022/02/07 13:26:58;;;;;;;11.45;2.00;;;;;;;9.48;90.54;102530.69;5070565;28;20083;-32
2022/02/07 13:29:27;;;;;;;12.90;1.77;;;;;;;9.44;90.63;102532.28;5071129;28;20048;-31
2022/02/07 13:31:57;;;;;;;7.57;1.23;;;;;;;9.38;90.26;102535.25;5071183;28;20080;-36
2022/02/07 13:34:31;;;;;;;8.68;1.52;;;;;;;9.33;90.72;102535.97;5070458;28;20044;-33
2022/02/07 13:37:09;;;;;;;10.27;2.03;;;;;;;9.33;91.46;102534.03;5060967;28;20048;-33
2022/02/07 13:39:52;;;;;;;8.15;1.60;;;;;;;9.28;91.16;102531.16;5070674;28;20041;-32
2022/02/07 13:42:25;;;;;;;9.70;1.75;;;;;;;9.24;91.92;102534.69;5062075;28;20051;-34